createdAt,value
2023-05-02T00:00:45.235Z,4.6231
2023-05-02T00:01:47.956Z,4.6846
2023-05-02T00:02:50.623Z,4.8308
2023-05-02T00:03:53.111Z,4.5692
2023-05-02T00:04:55.678Z,4.6769
2023-05-02T00:05:58.313Z,4.7154
2023-05-02T00:07:00.862Z,4.8000
2023-05-02T00:08:03.503Z,4.7231
2023-05-02T00:09:06.075Z,4.6308
2023-05-02T00:10:08.710Z,4.6615
2023-05-02T00:11:11.320Z,4.6615
2023-05-02T00:12:13.928Z,4.8000
2023-05-02T00:13:16.512Z,4.9077
2023-05-02T00:14:19.134Z,4.8308
2023-05-02T00:15:21.738Z,4.9692
2023-05-02T00:16:24.411Z,4.9769
2023-05-02T00:17:27.066Z,4.7077
2023-05-02T00:18:29.568Z,4.5385
2023-05-02T00:19:32.154Z,4.5615
2023-05-02T00:20:34.783Z,4.8615
2023-05-02T00:21:39.419Z,4.7538
2023-05-02T00:22:40.005Z,4.8385
2023-05-02T00:23:42.575Z,4.8000
2023-05-02T00:24:45.222Z,4.8769
2023-05-02T00:25:47.806Z,4.7846
2023-05-02T00:26:50.445Z,4.7846
2023-05-02T00:27:53.053Z,4.8077
2023-05-02T00:28:55.669Z,4.7308
2023-05-02T00:30:00.646Z,4.5692
2023-05-02T00:31:02.973Z,4.4923
2023-05-02T00:32:05.514Z,4.4000
2023-05-02T00:33:08.160Z,4.5077
2023-05-02T00:34:10.726Z,4.3923
2023-05-02T00:35:13.338Z,4.4615
2023-05-02T00:36:13.888Z,4.5385
2023-05-02T00:37:16.516Z,4.7000
2023-05-02T00:38:19.089Z,4.5077
2023-05-02T00:39:21.741Z,4.6308
2023-05-02T00:40:24.306Z,4.6308
2023-05-02T00:41:26.972Z,4.5462
2023-05-02T00:42:29.536Z,4.8000
2023-05-02T00:43:32.176Z,4.6231
2023-05-02T00:44:34.763Z,4.5077
2023-05-02T00:45:37.659Z,4.5769
2023-05-02T00:46:41.120Z,4.5923
2023-05-02T00:47:42.631Z,4.4000
2023-05-02T00:48:45.199Z,4.4385
2023-05-02T00:49:47.810Z,4.6308
2023-05-02T00:50:50.394Z,4.4846
2023-05-02T00:51:53.032Z,4.4077
2023-05-02T00:52:55.617Z,4.4308
2023-05-02T00:53:58.263Z,4.4231
2023-05-02T00:55:00.843Z,4.3077
2023-05-02T00:56:03.471Z,4.7231
2023-05-02T00:57:06.095Z,4.4923
2023-05-02T00:58:08.674Z,4.4154
2023-05-02T00:59:11.257Z,4.4308
2023-05-02T01:00:13.927Z,4.3538
2023-05-02T01:01:16.521Z,4.6000
2023-05-02T01:02:19.149Z,4.4385
2023-05-02T01:03:21.793Z,4.4231
2023-05-02T01:04:24.332Z,4.4385
2023-05-02T01:05:26.921Z,4.2385
2023-05-02T01:06:29.928Z,4.3462
2023-05-02T01:07:32.110Z,4.2077
2023-05-02T01:08:34.773Z,4.1692
2023-05-02T01:09:37.333Z,4.2923
2023-05-02T01:10:39.960Z,4.4000
2023-05-02T01:11:42.856Z,4.2538
2023-05-02T01:12:45.185Z,4.1385
2023-05-02T01:13:47.768Z,4.1769
2023-05-02T01:14:50.401Z,4.0846
2023-05-02T01:15:53.023Z,4.3769
2023-05-02T01:16:55.626Z,4.3538
2023-05-02T01:17:58.271Z,4.5077
2023-05-02T01:19:00.836Z,4.5846
2023-05-02T01:20:03.650Z,4.6692
2023-05-02T01:21:06.071Z,4.7615
2023-05-02T01:22:08.643Z,4.7231
2023-05-02T01:23:11.273Z,4.9692
2023-05-02T01:24:13.864Z,4.5923
2023-05-02T01:25:16.503Z,4.8000
2023-05-02T01:26:19.084Z,4.7923
2023-05-02T01:27:21.717Z,4.8462
2023-05-02T01:28:24.301Z,4.6923
2023-05-02T01:29:26.923Z,4.7462
2023-05-02T01:30:29.686Z,4.8308
2023-05-02T01:31:32.178Z,4.8231
2023-05-02T01:32:34.745Z,5.0231
2023-05-02T01:33:37.350Z,4.8846
2023-05-02T01:34:39.935Z,4.7846
2023-05-02T01:35:42.574Z,4.8308
2023-05-02T01:36:45.167Z,5.1615
2023-05-02T01:37:47.799Z,4.9385
2023-05-02T01:38:50.377Z,4.8846
2023-05-02T01:39:53.004Z,4.8846
2023-05-02T01:40:55.590Z,4.8538
2023-05-02T01:41:58.218Z,4.8308
2023-05-02T01:43:00.797Z,4.9538
2023-05-02T01:44:03.437Z,5.0846
2023-05-02T01:45:06.006Z,4.7846
2023-05-02T01:46:08.634Z,4.6769
2023-05-02T01:47:11.321Z,4.8462
2023-05-02T01:48:13.858Z,4.8385
2023-05-02T01:49:16.438Z,4.6077
2023-05-02T01:50:19.064Z,4.7923
2023-05-02T01:51:21.871Z,4.8385
2023-05-02T01:52:24.285Z,4.7923
2023-05-02T01:53:26.876Z,4.9231
2023-05-02T01:54:29.497Z,4.7615
2023-05-02T01:55:32.093Z,4.9615
2023-05-02T01:56:34.703Z,4.7538
2023-05-02T01:57:37.307Z,4.8462
2023-05-02T01:58:39.921Z,4.7615
2023-05-02T01:59:42.509Z,4.5462
2023-05-02T02:00:45.173Z,4.5538
2023-05-02T02:01:47.719Z,4.5769
2023-05-02T02:02:50.380Z,4.5769
2023-05-02T02:03:53.007Z,4.5846
2023-05-02T02:04:55.579Z,4.5923
2023-05-02T02:05:58.195Z,4.5154
2023-05-02T02:07:00.781Z,4.5308
2023-05-02T02:08:03.366Z,4.6769
2023-05-02T02:09:06.011Z,4.4769
2023-05-02T02:10:08.806Z,4.5538
2023-05-02T02:11:11.216Z,4.6154
2023-05-02T02:12:13.800Z,4.5000
2023-05-02T02:13:16.426Z,4.6154
2023-05-02T02:14:19.027Z,4.7385
2023-05-02T02:15:21.656Z,4.8000
2023-05-02T02:16:24.312Z,4.7615
2023-05-02T02:17:26.955Z,4.6385
2023-05-02T02:18:29.450Z,4.4308
2023-05-02T02:19:32.085Z,4.4538
2023-05-02T02:20:34.657Z,4.7615
2023-05-02T02:21:37.310Z,4.8077
2023-05-02T02:22:39.874Z,4.8462
2023-05-02T02:23:42.515Z,4.7538
2023-05-02T02:24:45.081Z,4.7385
2023-05-02T02:25:47.724Z,4.6538
2023-05-02T02:26:50.292Z,4.5769
2023-05-02T02:27:52.921Z,4.6231
2023-05-02T02:28:55.497Z,4.4923
2023-05-02T02:29:58.504Z,4.3231
2023-05-02T02:31:00.766Z,4.3231
2023-05-02T02:32:03.340Z,4.4846
2023-05-02T02:33:05.993Z,4.2923
2023-05-02T02:34:08.563Z,4.6615
2023-05-02T02:35:11.145Z,4.5308
2023-05-02T02:36:13.777Z,4.7077
2023-05-02T02:37:16.361Z,4.5462
2023-05-02T02:38:18.990Z,4.4769
2023-05-02T02:40:31.937Z,5.2786
2023-05-02T02:41:34.371Z,5.0538
2023-05-02T02:42:37.100Z,5.0923
2023-05-02T02:43:39.602Z,5.0923
2023-05-02T02:44:42.217Z,5.2077
2023-05-02T02:45:44.837Z,5.1077
2023-05-02T02:46:47.498Z,5.1231
2023-05-02T02:47:50.073Z,5.1769
2023-05-02T02:48:52.821Z,5.0692
2023-05-02T02:49:55.263Z,5.1231
2023-05-02T02:50:57.891Z,5.1231
2023-05-02T02:52:00.495Z,5.1846
2023-05-02T02:53:03.104Z,5.0308
2023-05-02T02:54:15.405Z,5.1000
2023-05-02T02:55:08.326Z,5.1231
2023-05-02T02:56:10.898Z,5.2462
2023-05-02T02:57:13.537Z,5.1000
2023-05-02T02:58:16.121Z,5.2538
2023-05-02T02:59:18.753Z,5.1077
2023-05-02T03:00:21.365Z,4.9692
2023-05-02T03:01:24.002Z,5.0692
2023-05-02T03:02:26.568Z,5.2154
2023-05-02T03:03:29.433Z,4.9462
2023-05-02T03:04:31.781Z,5.1923
2023-05-02T03:05:34.425Z,5.1385
2023-05-02T03:06:37.078Z,5.0077
2023-05-02T03:07:39.630Z,5.2154
2023-05-02T03:08:42.213Z,5.0462
2023-05-02T03:09:44.941Z,5.1308
2023-05-02T03:10:47.437Z,4.9154
2023-05-02T03:11:50.105Z,4.9538
2023-05-02T03:12:52.646Z,4.9692
2023-05-02T03:13:55.273Z,5.1154
2023-05-02T03:14:57.876Z,4.7308
2023-05-02T03:16:00.521Z,4.4846
2023-05-02T03:17:03.073Z,4.4846
2023-05-02T03:18:05.720Z,4.5000
2023-05-02T03:19:08.296Z,4.6692
2023-05-02T03:20:10.928Z,4.6538
2023-05-02T03:21:13.519Z,5.0000
2023-05-02T03:22:16.190Z,4.6769
2023-05-02T03:23:18.732Z,4.5462
2023-05-02T03:24:21.431Z,4.6462
2023-05-02T03:25:23.929Z,4.4385
2023-05-02T03:26:26.565Z,4.4846
2023-05-02T03:27:29.150Z,4.3615
2023-05-02T03:28:31.801Z,4.3923
2023-05-02T03:29:34.374Z,4.5231
2023-05-02T03:30:37.002Z,4.7077
2023-05-02T03:31:39.662Z,4.6538
2023-05-02T03:32:42.242Z,4.6385
2023-05-02T03:33:44.805Z,4.7769
2023-05-02T03:34:47.436Z,4.7538
2023-05-02T03:35:50.025Z,4.5077
2023-05-02T03:36:54.108Z,4.8462
2023-05-02T03:37:55.277Z,4.6692
2023-05-02T03:38:57.860Z,4.6308
2023-05-02T03:40:00.946Z,4.7077
2023-05-02T03:41:03.083Z,4.7692
2023-05-02T03:42:05.694Z,4.6538
2023-05-02T03:43:08.280Z,4.6231
2023-05-02T03:46:04.451Z,4.5286
2023-05-02T03:47:07.056Z,4.4692
2023-05-02T03:48:09.747Z,4.6000
2023-05-02T03:50:56.212Z,4.6929
2023-05-02T03:53:13.861Z,4.6500
2023-05-02T03:54:16.472Z,4.7769
2023-05-02T03:55:19.087Z,4.6077
2023-05-02T03:56:21.679Z,4.5000
2023-05-02T03:57:24.301Z,4.2615
2023-05-02T03:58:26.899Z,4.1923
2023-05-02T03:59:29.534Z,4.1462
2023-05-02T04:00:32.136Z,4.2077
2023-05-02T04:01:34.785Z,4.2077
2023-05-02T04:02:37.491Z,4.3000
2023-05-02T04:03:40.048Z,4.0462
2023-05-02T04:04:42.641Z,4.0769
2023-05-02T04:05:45.208Z,4.2308
2023-05-02T04:06:47.914Z,4.4462
2023-05-02T04:07:50.445Z,4.3308
2023-05-02T04:08:53.046Z,4.4000
2023-05-02T04:09:55.661Z,4.3538
2023-05-02T04:10:58.256Z,4.4385
2023-05-02T04:12:01.215Z,4.3462
2023-05-02T04:13:03.478Z,4.3231
2023-05-02T04:14:06.194Z,4.2615
2023-05-02T04:15:08.693Z,4.1846
2023-05-02T04:16:11.328Z,4.3000
2023-05-02T04:17:14.009Z,4.3923
2023-05-02T04:18:16.610Z,4.1769
2023-05-02T04:19:19.126Z,4.2538
2023-05-02T04:20:21.755Z,4.2923
2023-05-02T04:21:24.332Z,4.3077
2023-05-02T04:22:26.976Z,4.2308
2023-05-02T04:23:29.567Z,4.3769
2023-05-02T04:24:32.202Z,4.1462
2023-05-02T04:25:34.779Z,4.1538
2023-05-02T04:26:37.416Z,4.4154
2023-05-02T04:27:40.001Z,4.2923
2023-05-02T04:28:42.633Z,4.4615
2023-05-02T04:29:45.221Z,4.3538
2023-05-02T04:30:47.921Z,4.5000
2023-05-02T04:31:50.440Z,4.2077
2023-05-02T04:32:53.430Z,4.1000
2023-05-02T04:35:01.365Z,4.2929
2023-05-02T04:36:03.992Z,4.4692
2023-05-02T04:37:06.585Z,4.3846
2023-05-02T04:38:09.231Z,4.5923
2023-05-02T04:39:12.119Z,4.6462
2023-05-02T04:40:14.475Z,4.7769
2023-05-02T04:41:17.058Z,5.0385
2023-05-02T04:42:19.701Z,5.3231
2023-05-02T04:43:24.424Z,4.7538
2023-05-02T04:44:24.908Z,4.8154
2023-05-02T04:45:27.609Z,4.8000
2023-05-02T04:46:30.175Z,4.7231
2023-05-02T04:47:32.749Z,5.1308
2023-05-02T04:48:35.406Z,5.2538
2023-05-02T04:49:37.951Z,5.1923
2023-05-02T04:50:40.607Z,5.0308
2023-05-02T04:51:43.189Z,4.9000
2023-05-02T04:52:45.825Z,5.3846
2023-05-02T04:53:48.513Z,5.3692
2023-05-02T04:54:51.060Z,5.3692
2023-05-02T04:55:53.649Z,5.1769
2023-05-02T04:56:56.298Z,5.0769
2023-05-02T04:57:58.897Z,5.6769
2023-05-02T04:59:01.518Z,5.6538
2023-05-02T05:00:04.151Z,5.6385
2023-05-02T05:01:06.775Z,5.3462
2023-05-02T05:02:09.385Z,5.3000
2023-05-02T05:03:12.032Z,5.4000
2023-05-02T05:04:14.810Z,5.3615
2023-05-02T05:05:17.256Z,5.8077
2023-05-02T05:06:19.878Z,5.8538
2023-05-02T05:07:22.527Z,5.7462
2023-05-02T05:08:25.072Z,5.9692
2023-05-02T05:09:27.654Z,5.9000
2023-05-02T05:10:30.322Z,6.0615
2023-05-02T05:11:32.888Z,6.2923
2023-05-02T05:12:35.589Z,6.4846
2023-05-02T05:13:38.138Z,6.5769
2023-05-02T05:16:00.595Z,7.0429
2023-05-02T05:17:03.209Z,7.6385
2023-05-02T05:18:05.851Z,8.2385
2023-05-02T05:19:08.400Z,8.5692
2023-05-02T05:20:10.998Z,8.7462
2023-05-02T05:21:13.624Z,8.2154
2023-05-02T05:22:16.232Z,8.2615
2023-05-02T05:23:18.955Z,8.1615
2023-05-02T05:24:21.431Z,8.1385
2023-05-02T05:25:24.064Z,8.0154
2023-05-02T05:26:26.660Z,8.2923
2023-05-02T05:27:29.431Z,8.2615
2023-05-02T05:28:31.887Z,8.0308
2023-05-02T05:29:34.520Z,7.9923
2023-05-02T05:30:37.117Z,7.8615
2023-05-02T05:31:39.819Z,8.1154
2023-05-02T05:32:42.376Z,8.0308
2023-05-02T05:33:45.182Z,8.2077
2023-05-02T05:36:12.323Z,8.1786
2023-05-02T05:37:14.840Z,8.3615
2023-05-02T05:38:17.462Z,8.1385
2023-05-02T05:39:20.060Z,8.2462
2023-05-02T05:40:22.697Z,7.9308
2023-05-02T05:41:25.344Z,7.9077
2023-05-02T05:42:27.994Z,8.0769
2023-05-02T05:43:30.570Z,7.8538
2023-05-02T05:44:33.203Z,7.8077
2023-05-02T05:45:35.809Z,8.5077
2023-05-02T05:46:39.500Z,10.2615
2023-05-02T05:47:42.081Z,9.9538
2023-05-02T05:48:45.621Z,12.3692
2023-05-02T05:49:46.840Z,14.0154
2023-05-02T05:50:48.794Z,10.0385
2023-05-02T05:51:51.388Z,8.0462
2023-05-02T05:52:54.017Z,7.2769
2023-05-02T05:53:56.601Z,6.8769
2023-05-02T05:54:59.234Z,6.6231
2023-05-02T05:56:01.834Z,6.6385
2023-05-02T05:57:04.452Z,6.8000
2023-05-02T05:58:07.028Z,6.9462
2023-05-02T05:59:09.679Z,6.6923
2023-05-02T06:00:12.253Z,6.3923
2023-05-02T06:01:15.184Z,6.3385
2023-05-02T06:02:17.469Z,6.2154
2023-05-02T06:03:20.152Z,6.2615
2023-05-02T06:04:22.736Z,6.2385
2023-05-02T06:05:25.311Z,6.8000
2023-05-02T06:06:27.913Z,6.4154
2023-05-02T06:07:30.518Z,6.2538
2023-05-02T06:08:33.110Z,6.2615
2023-05-02T06:09:35.736Z,6.2692
2023-05-02T06:10:38.317Z,6.5692
2023-05-02T06:11:40.965Z,6.6923
2023-05-02T06:12:45.200Z,6.9462
2023-05-02T06:13:46.164Z,7.0231
2023-05-02T06:14:48.907Z,7.2615
2023-05-02T06:15:51.421Z,7.2000
2023-05-02T06:16:53.961Z,7.0385
2023-05-02T06:17:56.642Z,7.1692
2023-05-02T06:18:59.180Z,7.1231
2023-05-02T06:20:02.163Z,7.2692
2023-05-02T06:21:04.599Z,7.2769
2023-05-02T06:22:07.002Z,7.0846
2023-05-02T06:23:09.983Z,7.3692
2023-05-02T06:24:12.206Z,7.3308
2023-05-02T06:25:14.783Z,7.3000
2023-05-02T06:26:17.416Z,7.2538
2023-05-02T06:27:19.993Z,6.9538
2023-05-02T06:28:22.624Z,6.9923
2023-05-02T06:29:25.197Z,6.6000
2023-05-02T06:30:27.905Z,6.4462
2023-05-02T06:31:30.470Z,6.4692
2023-05-02T06:32:33.074Z,6.4462
2023-05-02T06:33:35.631Z,6.5615
2023-05-02T06:34:38.243Z,6.3692
2023-05-02T06:35:40.833Z,6.3538
2023-05-02T06:36:43.458Z,6.3692
2023-05-02T06:37:46.061Z,6.5154
2023-05-02T06:38:48.659Z,6.5462
2023-05-02T06:41:30.287Z,6.6143
2023-05-02T06:42:32.870Z,6.5692
2023-05-02T06:43:35.499Z,6.0154
2023-05-02T06:44:38.075Z,6.0692
2023-05-02T06:45:40.722Z,6.1692
2023-05-02T06:46:43.344Z,6.1231
2023-05-02T06:47:45.970Z,6.0846
2023-05-02T06:49:53.806Z,6.1857
2023-05-02T06:50:56.402Z,6.1077
2023-05-02T06:51:59.034Z,5.8769
2023-05-02T06:53:01.606Z,6.0308
2023-05-02T06:54:04.235Z,5.7077
2023-05-02T06:55:06.817Z,5.7308
2023-05-02T06:56:09.454Z,5.6769
2023-05-02T06:57:12.038Z,5.6462
2023-05-02T07:00:08.085Z,5.6857
2023-05-02T07:01:10.700Z,5.6000
2023-05-02T07:02:13.310Z,5.2692
2023-05-02T07:03:15.871Z,5.4231
2023-05-02T07:04:18.514Z,5.3462
2023-05-02T07:05:21.067Z,5.1462
2023-05-02T07:06:23.717Z,5.1000
2023-05-02T07:07:26.275Z,5.0077
2023-05-02T07:08:28.914Z,4.9538
2023-05-02T07:09:31.499Z,4.6615
2023-05-02T07:10:34.137Z,4.4692
2023-05-02T07:11:36.729Z,4.3231
2023-05-02T07:12:39.330Z,4.7000
2023-05-02T07:13:41.926Z,4.6692
2023-05-02T07:14:44.526Z,4.6077
2023-05-02T07:15:47.109Z,4.7846
2023-05-02T07:16:49.822Z,4.6846
2023-05-02T07:17:52.378Z,4.6538
2023-05-02T07:18:54.956Z,4.4846
2023-05-02T07:19:57.518Z,4.4692
2023-05-02T07:21:00.198Z,4.7462
2023-05-02T07:22:02.804Z,4.9923
2023-05-02T07:23:05.365Z,4.8615
2023-05-02T07:24:07.945Z,5.4154
2023-05-02T07:25:10.570Z,5.3923
2023-05-02T07:26:13.132Z,5.2923
2023-05-02T07:27:15.756Z,5.3923
2023-05-02T07:28:18.335Z,5.6000
2023-05-02T07:29:20.978Z,5.6000
2023-05-02T07:30:23.531Z,5.7385
2023-05-02T07:31:26.196Z,5.7769
2023-05-02T07:32:28.787Z,5.9154
2023-05-02T07:33:31.564Z,5.9615
2023-05-02T07:34:33.944Z,6.0846
2023-05-02T07:35:36.554Z,5.8923
2023-05-02T07:36:39.140Z,5.9385
2023-05-02T07:37:41.749Z,5.8923
2023-05-02T07:38:44.459Z,6.8000
2023-05-02T07:39:46.968Z,6.8692
2023-05-02T07:40:49.542Z,6.7538
2023-05-02T07:41:52.154Z,6.9077
2023-05-02T07:42:54.749Z,6.7231
2023-05-02T07:43:57.361Z,6.7692
2023-05-02T07:44:59.968Z,6.8923
2023-05-02T07:48:01.045Z,6.6357
2023-05-02T07:49:03.488Z,6.6077
2023-05-02T07:50:06.107Z,6.9846
2023-05-02T07:51:08.687Z,7.0538
2023-05-02T07:52:11.311Z,7.3385
2023-05-02T07:53:13.891Z,7.2462
2023-05-02T07:54:16.508Z,7.3615
2023-05-02T07:55:19.370Z,6.8385
2023-05-02T07:56:21.734Z,7.3769
2023-05-02T07:57:24.297Z,7.4077
2023-05-02T07:58:26.908Z,7.6385
2023-05-02T07:59:29.477Z,7.4462
2023-05-02T08:00:32.121Z,7.3154
2023-05-02T08:01:34.679Z,7.3154
2023-05-02T08:02:37.455Z,7.5769
2023-05-02T08:03:40.016Z,7.5538
2023-05-02T08:06:07.022Z,7.6500
2023-05-02T08:07:09.606Z,8.0308
2023-05-02T08:08:12.185Z,7.7077
2023-05-02T08:09:14.812Z,7.9385
2023-05-02T08:10:17.395Z,8.1154
2023-05-02T08:11:21.865Z,7.3923
2023-05-02T08:12:22.605Z,7.8615
2023-05-02T08:13:25.237Z,7.5000
2023-05-02T08:14:27.782Z,7.6846
2023-05-02T08:15:30.418Z,7.7846
2023-05-02T08:16:33.034Z,7.5154
2023-05-02T08:17:35.664Z,7.8154
2023-05-02T08:18:38.337Z,7.6154
2023-05-02T08:19:40.813Z,7.5923
2023-05-02T08:20:43.362Z,7.4692
2023-05-02T08:21:45.982Z,7.4692
2023-05-02T08:22:48.558Z,7.4923
2023-05-02T08:23:51.170Z,7.2615
2023-05-02T08:24:53.749Z,7.0692
2023-05-02T08:25:56.370Z,7.8231
2023-05-02T08:26:58.942Z,7.6923
2023-05-02T08:28:01.576Z,7.8462
2023-05-02T08:29:04.143Z,7.8846
2023-05-02T08:30:07.086Z,7.9462
2023-05-02T08:31:09.377Z,7.8692
2023-05-02T08:32:12.051Z,7.6154
2023-05-02T08:33:14.615Z,7.7231
2023-05-02T08:34:17.134Z,7.6692
2023-05-02T08:35:19.685Z,7.7385
2023-05-02T08:36:22.314Z,7.6385
2023-05-02T08:37:24.876Z,7.7846
2023-05-02T08:38:27.507Z,7.3769
2023-05-02T08:39:30.071Z,7.5538
2023-05-02T08:40:40.893Z,7.5308
2023-05-02T08:41:35.269Z,7.7231
2023-05-02T08:42:37.893Z,7.6846
2023-05-02T08:43:40.484Z,7.3846
2023-05-02T08:44:43.079Z,7.4538
2023-05-02T08:45:45.661Z,7.4231
2023-05-02T08:46:48.357Z,7.4846
2023-05-02T08:47:50.949Z,7.4692
2023-05-02T08:48:53.470Z,7.2538
2023-05-02T08:49:56.032Z,7.3308
2023-05-02T08:50:58.657Z,7.4231
2023-05-02T08:52:01.229Z,7.7077
2023-05-02T08:53:03.847Z,7.3385
2023-05-02T08:54:06.423Z,7.3769
2023-05-02T08:55:09.060Z,7.2923
2023-05-02T08:56:11.622Z,7.6077
2023-05-02T08:57:14.248Z,7.6154
2023-05-02T08:58:17.739Z,7.3231
2023-05-02T08:59:19.444Z,7.0154
2023-05-02T09:00:22.056Z,7.0692
2023-05-02T09:01:24.789Z,7.4231
2023-05-02T09:02:27.212Z,6.9308
2023-05-02T09:03:29.820Z,7.1923
2023-05-02T09:04:32.422Z,7.3538
2023-05-02T09:05:35.002Z,7.5615
2023-05-02T09:06:37.679Z,7.6385
2023-05-02T09:07:40.195Z,7.6231
2023-05-02T09:08:42.765Z,7.2846
2023-05-02T09:11:24.327Z,7.2571
2023-05-02T09:12:26.925Z,7.3000
2023-05-02T09:13:29.498Z,7.5692
2023-05-02T09:14:32.124Z,7.5462
2023-05-02T09:15:34.892Z,7.5923
2023-05-02T09:16:37.362Z,7.8385
2023-05-02T09:17:39.995Z,7.9000
2023-05-02T09:18:42.542Z,7.8308
2023-05-02T09:19:45.094Z,7.7846
2023-05-02T09:20:47.714Z,7.7077
2023-05-02T09:21:50.290Z,7.4231
2023-05-02T09:22:52.928Z,7.5231
2023-05-02T09:23:55.526Z,7.6692
2023-05-02T09:24:58.384Z,7.7846
2023-05-02T09:26:00.661Z,7.7615
2023-05-02T09:27:03.497Z,7.7615
2023-05-02T09:28:05.852Z,8.0154
2023-05-02T09:29:08.477Z,7.7615
2023-05-02T09:30:11.053Z,7.7615
2023-05-02T09:31:15.366Z,8.0154
2023-05-02T09:32:16.277Z,7.6692
2023-05-02T09:33:19.330Z,7.7538
2023-05-02T09:34:21.593Z,7.6308
2023-05-02T09:35:24.044Z,7.1846
2023-05-02T09:36:26.611Z,7.3615
2023-05-02T09:37:29.228Z,7.1231
2023-05-02T09:38:31.806Z,6.8000
2023-05-02T09:39:34.436Z,7.3231
2023-05-02T09:40:36.993Z,7.2769
2023-05-02T09:41:39.621Z,7.2154
2023-05-02T09:42:42.200Z,7.0462
2023-05-02T09:43:44.816Z,7.1769
2023-05-02T09:44:47.421Z,7.1000
2023-05-02T09:45:50.073Z,7.1000
2023-05-02T09:46:52.586Z,6.6308
2023-05-02T09:47:55.313Z,6.7385
2023-05-02T09:48:57.776Z,6.7077
2023-05-02T09:50:00.402Z,6.8846
2023-05-02T09:51:02.963Z,6.8462
2023-05-02T09:52:05.573Z,7.4923
2023-05-02T09:53:08.416Z,7.4077
2023-05-02T09:54:10.784Z,7.4769
2023-05-02T09:55:13.352Z,7.5923
2023-05-02T09:56:15.981Z,7.6385
2023-05-02T09:57:18.543Z,7.7077
2023-05-02T09:58:21.174Z,7.4000
2023-05-02T09:59:23.881Z,6.6769
2023-05-02T10:00:26.349Z,6.4769
2023-05-02T10:01:28.959Z,6.6846
2023-05-02T10:02:31.583Z,6.4923
2023-05-02T10:04:53.796Z,6.8571
2023-05-02T10:05:56.357Z,6.5154
2023-05-02T10:06:58.994Z,6.3846
2023-05-02T10:08:01.552Z,6.8385
2023-05-02T10:09:04.174Z,6.9231
2023-05-02T10:10:06.758Z,7.1692
2023-05-02T10:11:09.375Z,7.1308
2023-05-02T10:12:12.157Z,7.0000
2023-05-02T10:13:14.563Z,7.2615
2023-05-02T10:14:17.150Z,7.3385
2023-05-02T10:15:19.770Z,7.4923
2023-05-02T10:16:22.402Z,7.2923
2023-05-02T10:17:24.973Z,7.4077
2023-05-02T10:18:27.527Z,6.9462
2023-05-02T10:19:30.111Z,7.4462
2023-05-02T10:20:32.696Z,7.0923
2023-05-02T10:21:35.305Z,7.1231
2023-05-02T10:22:37.866Z,7.2846
2023-05-02T10:23:40.481Z,7.2231
2023-05-02T10:24:43.054Z,7.4077
2023-05-02T10:25:45.686Z,6.8923
2023-05-02T10:26:48.282Z,7.2615
2023-05-02T10:27:50.869Z,7.1077
2023-05-02T10:28:53.438Z,6.5692
2023-05-02T10:29:56.056Z,6.8154
2023-05-02T10:30:58.636Z,6.4385
2023-05-02T10:32:01.288Z,6.2846
2023-05-02T10:33:03.910Z,6.2692
2023-05-02T10:34:06.684Z,6.3154
2023-05-02T10:35:10.255Z,6.2769
2023-05-02T10:36:11.620Z,6.4538
2023-05-02T10:37:14.179Z,6.2923
2023-05-02T10:38:16.804Z,6.5154
2023-05-02T10:39:19.378Z,6.3462
2023-05-02T10:40:21.984Z,6.5846
2023-05-02T10:41:24.553Z,6.5692
2023-05-02T10:42:28.381Z,6.2846
2023-05-02T10:44:54.221Z,6.2571
2023-05-02T10:45:56.794Z,6.4846
2023-05-02T10:46:59.634Z,6.4462
2023-05-02T10:48:02.006Z,6.0231
2023-05-02T10:49:04.595Z,6.2154
2023-05-02T10:50:07.173Z,5.8154
2023-05-02T10:51:09.941Z,5.9846
2023-05-02T10:52:12.356Z,5.9385
2023-05-02T10:53:14.981Z,6.3538
2023-05-02T10:54:17.559Z,6.4538
2023-05-02T10:56:49.439Z,6.3071
2023-05-02T10:57:52.008Z,6.7000
2023-05-02T10:58:54.637Z,6.9769
2023-05-02T10:59:57.217Z,6.7462
2023-05-02T11:00:59.908Z,6.4846
2023-05-02T11:02:04.019Z,6.5923
2023-05-02T11:03:05.090Z,6.6462
2023-05-02T11:04:07.627Z,6.7000
2023-05-02T11:05:10.264Z,6.6538
2023-05-02T11:06:12.849Z,6.5846
2023-05-02T11:07:15.414Z,6.9077
2023-05-02T11:08:20.210Z,6.9000
2023-05-02T11:09:20.612Z,6.4846
2023-05-02T11:10:23.191Z,6.7462
2023-05-02T11:11:25.831Z,6.4615
2023-05-02T11:12:28.367Z,6.3077
2023-05-02T11:13:30.987Z,6.0692
2023-05-02T11:14:33.603Z,6.1077
2023-05-02T11:15:36.182Z,6.2462
2023-05-02T11:16:38.781Z,5.9538
2023-05-02T11:17:41.384Z,6.0923
2023-05-02T11:18:43.942Z,6.0077
2023-05-02T11:19:46.565Z,5.9615
2023-05-02T11:20:49.129Z,5.8923
2023-05-02T11:21:51.757Z,5.9615
2023-05-02T11:22:54.323Z,5.9000
2023-05-02T11:23:56.948Z,5.6923
2023-05-02T11:24:59.726Z,5.7692
2023-05-02T11:26:02.146Z,5.4615
2023-05-02T11:27:04.720Z,5.2615
2023-05-02T11:28:07.566Z,4.9538
2023-05-02T11:29:09.909Z,4.8846
2023-05-02T11:30:12.785Z,5.2692
2023-05-02T11:31:15.114Z,5.7385
2023-05-02T11:32:17.798Z,5.9462
2023-05-02T11:33:20.475Z,5.8077
2023-05-02T11:34:22.932Z,5.5385
2023-05-02T11:35:25.477Z,5.9000
2023-05-02T11:36:29.161Z,5.8308
2023-05-02T11:37:30.923Z,5.6615
2023-05-02T11:38:33.332Z,5.6462
2023-05-02T11:39:35.888Z,5.4615
2023-05-02T11:40:38.521Z,5.3538
2023-05-02T11:41:41.084Z,5.3923
2023-05-02T11:42:43.710Z,5.4923
2023-05-02T11:43:46.290Z,5.8000
2023-05-02T11:44:48.891Z,5.9231
2023-05-02T11:45:51.506Z,6.1769
2023-05-02T11:46:54.088Z,6.4308
2023-05-02T11:47:58.322Z,6.2769
2023-05-02T11:48:59.268Z,6.1000
2023-05-02T11:50:01.841Z,6.1385
2023-05-02T11:52:38.521Z,6.2571
2023-05-02T11:53:41.101Z,5.8462
2023-05-02T11:54:43.728Z,6.0923
2023-05-02T11:55:46.299Z,6.0846
2023-05-02T11:56:48.933Z,6.0077
2023-05-02T11:57:51.767Z,5.7923
2023-05-02T11:58:54.120Z,6.3154
2023-05-02T11:59:56.680Z,6.0000
2023-05-02T12:00:59.305Z,5.4615
2023-05-02T12:02:01.882Z,5.4077
2023-05-02T12:03:04.562Z,5.8231
2023-05-02T12:04:07.107Z,5.6231
2023-05-02T12:05:09.693Z,5.7462
2023-05-02T12:06:12.890Z,5.5000
2023-05-02T12:07:14.935Z,5.6846
2023-05-02T12:08:17.431Z,5.8462
2023-05-02T12:09:20.062Z,5.7462
2023-05-02T12:10:22.630Z,5.6615
2023-05-02T12:11:25.425Z,5.7231
2023-05-02T12:12:27.850Z,5.7077
2023-05-02T12:13:30.461Z,5.5538
2023-05-02T12:14:33.031Z,5.8769
2023-05-02T12:15:35.645Z,5.6000
2023-05-02T12:16:38.348Z,5.9000
2023-05-02T12:17:40.890Z,6.0000
2023-05-02T12:18:43.418Z,5.7000
2023-05-02T12:19:46.393Z,6.3846
2023-05-02T12:20:48.615Z,6.0846
2023-05-02T12:23:20.504Z,6.5143
2023-05-02T12:24:23.078Z,6.6769
2023-05-02T12:25:25.733Z,6.6308
2023-05-02T12:26:28.281Z,6.4615
2023-05-02T12:27:30.913Z,6.6923
2023-05-02T12:28:33.480Z,6.4923
2023-05-02T12:29:36.115Z,7.0000
2023-05-02T12:30:38.664Z,6.8538
2023-05-02T12:31:41.355Z,6.5692
2023-05-02T12:32:43.933Z,6.6154
2023-05-02T12:33:46.467Z,6.6692
2023-05-02T12:34:49.045Z,6.7923
2023-05-02T12:35:51.660Z,6.6769
2023-05-02T12:36:54.242Z,6.5385
2023-05-02T12:37:57.199Z,6.4538
2023-05-02T12:38:59.825Z,6.4692
2023-05-02T12:40:02.206Z,6.2308
2023-05-02T12:41:04.615Z,6.4615
2023-05-02T12:42:07.233Z,6.4462
2023-05-02T12:43:09.800Z,6.6077
2023-05-02T12:44:12.440Z,6.3538
2023-05-02T12:45:15.002Z,6.3000
2023-05-02T12:46:17.674Z,6.2692
2023-05-02T12:47:20.281Z,6.0077
2023-05-02T12:48:22.807Z,5.9462
2023-05-02T12:49:25.488Z,6.0462
2023-05-02T12:50:27.975Z,5.3462
2023-05-02T12:51:30.582Z,5.4846
2023-05-02T12:52:33.152Z,5.4308
2023-05-02T12:53:35.766Z,5.9308
2023-05-02T12:54:38.336Z,5.8692
2023-05-02T12:55:40.958Z,5.6615
2023-05-02T12:56:43.772Z,5.7385
2023-05-02T12:57:46.134Z,5.9769
2023-05-02T12:58:48.700Z,5.8385
2023-05-02T12:59:51.326Z,5.9077
2023-05-02T13:00:53.909Z,6.0385
2023-05-02T13:01:56.532Z,5.9077
2023-05-02T13:02:59.174Z,5.6462
2023-05-02T13:04:01.754Z,5.9615
2023-05-02T13:05:04.273Z,5.6769
2023-05-02T13:06:07.006Z,6.0231
2023-05-02T13:07:09.466Z,5.8615
2023-05-02T13:08:12.078Z,5.8154
2023-05-02T13:09:14.633Z,6.7000
2023-05-02T13:10:17.260Z,6.5077
2023-05-02T13:11:19.827Z,6.3692
2023-05-02T13:12:22.448Z,6.4308
2023-05-02T13:13:25.063Z,5.9538
2023-05-02T13:14:27.655Z,5.8923
2023-05-02T13:15:30.234Z,5.6538
2023-05-02T13:16:32.922Z,6.0308
2023-05-02T13:17:35.562Z,6.2923
2023-05-02T13:18:38.069Z,6.2077
2023-05-02T13:19:44.603Z,6.4615
2023-05-02T13:22:26.892Z,5.9786
2023-05-02T13:23:29.490Z,6.6769
2023-05-02T13:24:32.050Z,6.4692
2023-05-02T13:25:34.676Z,6.6154
2023-05-02T13:26:37.315Z,6.4769
2023-05-02T13:27:39.861Z,6.1000
2023-05-02T13:28:42.436Z,5.7692
2023-05-02T13:29:45.058Z,5.8154